createdAt,value
2022-08-03T00:02:18.412Z,2.83
2022-08-03T00:04:46.768Z,2.42
2022-08-03T00:07:16.392Z,2.50
2022-08-03T00:09:44.697Z,2.60
2022-08-03T00:12:13.089Z,2.30
2022-08-03T00:14:41.572Z,2.50
2022-08-03T00:17:10.202Z,2.30
2022-08-03T00:19:38.475Z,2.40
2022-08-03T00:22:06.837Z,2.45
2022-08-03T00:24:37.173Z,2.78
2022-08-03T00:27:05.577Z,2.70
2022-08-03T00:29:33.867Z,2.92
2022-08-03T00:32:24.024Z,2.97
2022-08-03T00:34:57.292Z,2.50
2022-08-03T00:37:41.345Z,2.50
2022-08-03T00:40:13.262Z,2.58
2022-08-03T00:42:52.277Z,2.70
2022-08-03T00:45:20.577Z,2.58
2022-08-03T00:47:49.356Z,2.70
2022-08-03T00:50:18.152Z,2.75
2022-08-03T00:52:46.469Z,2.63
2022-08-03T00:55:16.343Z,2.80
2022-08-03T00:57:45.093Z,2.70
2022-08-03T01:00:14.578Z,2.90
2022-08-03T01:02:43.103Z,3.17
2022-08-03T01:05:11.743Z,2.63
2022-08-03T01:07:44.294Z,2.63
2022-08-03T01:10:18.081Z,2.50
2022-08-03T01:12:50.500Z,2.65
2022-08-03T01:15:22.571Z,2.63
2022-08-03T01:17:53.282Z,2.45
2022-08-03T01:20:22.713Z,2.38
2022-08-03T01:23:02.443Z,2.70
2022-08-03T01:25:40.739Z,2.40
2022-08-03T01:28:16.568Z,2.60
2022-08-03T01:30:47.426Z,2.60
2022-08-03T01:33:17.810Z,2.50
2022-08-03T01:35:48.156Z,2.20
2022-08-03T01:38:20.018Z,2.20
2022-08-03T01:40:48.603Z,2.40
2022-08-03T01:44:26.756Z,2.40
2022-08-03T01:46:09.139Z,2.53
2022-08-03T01:48:38.122Z,2.63
2022-08-03T01:51:06.632Z,2.55
2022-08-03T01:53:35.749Z,2.47
2022-08-03T01:56:05.445Z,2.80
2022-08-03T01:58:34.058Z,2.40
2022-08-03T02:01:02.939Z,2.20
2022-08-03T02:03:33.610Z,2.00
2022-08-03T02:06:59.942Z,2.53
2022-08-03T02:08:50.799Z,2.63
2022-08-03T02:11:19.131Z,2.92
2022-08-03T02:13:48.068Z,2.80
2022-08-03T02:16:16.333Z,2.80
2022-08-03T02:18:46.079Z,2.50
2022-08-03T02:21:55.836Z,2.42
2022-08-03T02:24:05.713Z,2.50
2022-08-03T02:26:34.349Z,3.10
2022-08-03T02:29:04.972Z,3.08
2022-08-03T02:31:35.239Z,2.92
2022-08-03T02:34:10.233Z,2.45
2022-08-03T02:36:39.770Z,2.80
2022-08-03T02:39:09.448Z,2.40
2022-08-03T02:41:38.998Z,2.78
2022-08-03T02:44:09.958Z,2.50
2022-08-03T02:46:39.699Z,3.10
2022-08-03T02:49:40.791Z,2.92
2022-08-03T02:51:59.646Z,3.08
2022-08-03T02:54:28.706Z,2.90
2022-08-03T02:56:58.829Z,2.72
2022-08-03T02:59:27.447Z,2.50
2022-08-03T03:01:56.815Z,3.00
2022-08-03T03:04:32.193Z,2.88
2022-08-03T03:07:01.973Z,2.80
2022-08-03T03:09:40.289Z,2.88
2022-08-03T03:12:11.580Z,2.65
2022-08-03T03:14:40.144Z,2.85
2022-08-03T03:17:10.948Z,3.10
2022-08-03T03:19:40.858Z,3.40
2022-08-03T03:22:10.165Z,3.30
2022-08-03T03:24:39.697Z,3.30
2022-08-03T03:27:08.010Z,2.92
2022-08-03T03:29:39.386Z,2.90
2022-08-03T03:32:09.233Z,3.03
2022-08-03T03:34:38.195Z,3.03
2022-08-03T03:37:07.838Z,3.30
2022-08-03T03:39:36.418Z,4.72
2022-08-03T03:42:04.720Z,3.35
2022-08-03T03:44:33.125Z,3.20
2022-08-03T03:47:01.455Z,3.20
2022-08-03T03:49:29.764Z,3.63
2022-08-03T03:51:58.057Z,3.63
2022-08-03T03:54:29.309Z,3.28
2022-08-03T03:56:57.998Z,3.33
2022-08-03T03:59:26.301Z,3.40
2022-08-03T04:01:59.292Z,3.45
2022-08-03T04:04:45.148Z,3.78
2022-08-03T04:07:31.137Z,4.68
2022-08-03T04:10:18.313Z,4.07
2022-08-03T04:12:49.979Z,4.03
2022-08-03T04:15:20.384Z,3.92
2022-08-03T04:17:48.918Z,4.25
2022-08-03T04:20:17.593Z,3.95
2022-08-03T04:22:46.321Z,4.45
2022-08-03T04:25:19.445Z,4.22
2022-08-03T04:28:21.035Z,5.10
2022-08-03T04:30:39.357Z,4.07
2022-08-03T04:33:08.311Z,4.40
2022-08-03T04:36:01.462Z,4.18
2022-08-03T04:38:27.061Z,4.15
2022-08-03T04:40:57.909Z,4.63
2022-08-03T04:43:27.093Z,4.03
2022-08-03T04:45:56.464Z,3.88
2022-08-03T04:48:24.761Z,4.82
2022-08-03T04:50:53.313Z,4.00
2022-08-03T04:53:25.839Z,3.97
2022-08-03T04:55:54.272Z,3.90
2022-08-03T04:58:25.341Z,4.60
2022-08-03T05:00:53.636Z,5.22
2022-08-03T05:03:24.104Z,4.50
2022-08-03T05:05:53.512Z,4.50
2022-08-03T05:08:30.713Z,4.07
2022-08-03T05:11:00.019Z,4.50
2022-08-03T05:13:29.876Z,5.10
2022-08-03T05:15:59.324Z,4.47
2022-08-03T05:18:27.583Z,5.03
2022-08-03T05:20:55.789Z,4.70
2022-08-03T05:23:24.106Z,4.82
2022-08-03T05:25:52.364Z,4.30
2022-08-03T05:28:20.650Z,4.88
2022-08-03T05:30:50.352Z,4.35
2022-08-03T05:33:18.608Z,4.60
2022-08-03T05:36:01.622Z,4.93
2022-08-03T05:38:34.053Z,4.50
2022-08-03T05:41:22.614Z,4.80
2022-08-03T05:43:52.124Z,4.78
2022-08-03T05:46:21.862Z,4.70
2022-08-03T05:48:50.136Z,4.78
2022-08-03T05:51:18.737Z,4.88
2022-08-03T05:53:47.050Z,4.85
2022-08-03T05:56:16.580Z,4.95
2022-08-03T05:58:46.259Z,4.63
2022-08-03T06:01:14.736Z,4.63
2022-08-03T06:03:44.346Z,4.10
2022-08-03T06:06:12.621Z,4.20
2022-08-03T06:08:40.909Z,4.80
2022-08-03T06:11:09.688Z,4.25
2022-08-03T06:13:38.053Z,4.30
2022-08-03T06:16:06.677Z,4.40
2022-08-03T06:18:35.076Z,3.80
2022-08-03T06:21:09.666Z,4.30
2022-08-03T06:23:54.335Z,3.65
2022-08-03T06:26:24.174Z,3.50
2022-08-03T06:28:54.212Z,4.00
2022-08-03T06:31:24.173Z,4.13
2022-08-03T06:34:32.354Z,4.43
2022-08-03T06:36:42.424Z,4.25
2022-08-03T06:39:10.729Z,4.10
2022-08-03T06:41:44.714Z,4.20
2022-08-03T06:44:13.553Z,3.90
2022-08-03T06:46:43.224Z,4.10
2022-08-03T06:49:11.542Z,3.80
2022-08-03T06:52:04.568Z,3.75
2022-08-03T06:54:32.890Z,3.65
2022-08-03T06:57:01.864Z,3.70
2022-08-03T07:00:08.342Z,3.83
2022-08-03T07:02:20.305Z,3.63
2022-08-03T07:04:48.884Z,3.47
2022-08-03T07:07:17.370Z,3.90
2022-08-03T07:09:56.587Z,3.20
2022-08-03T07:12:26.141Z,3.35
2022-08-03T07:14:58.167Z,3.30
2022-08-03T07:17:29.051Z,3.50
2022-08-03T07:19:57.780Z,3.15
2022-08-03T07:22:26.011Z,3.42
2022-08-03T07:24:55.748Z,3.30
2022-08-03T07:27:23.986Z,3.20
2022-08-03T07:29:52.325Z,3.30
2022-08-03T07:32:20.597Z,3.00
2022-08-03T07:34:48.900Z,2.83
2022-08-03T07:37:17.138Z,3.15
2022-08-03T07:39:46.789Z,3.05
2022-08-03T07:42:16.625Z,3.03
2022-08-03T07:44:44.982Z,3.10
2022-08-03T07:47:19.381Z,3.22
2022-08-03T07:49:51.106Z,2.80
2022-08-03T07:52:37.234Z,2.65
2022-08-03T07:55:06.460Z,2.88
2022-08-03T07:57:36.355Z,2.58
2022-08-03T08:00:05.419Z,2.60
2022-08-03T08:02:33.653Z,2.70
2022-08-03T08:05:05.554Z,2.75
2022-08-03T08:07:34.360Z,2.72
2022-08-03T08:10:02.647Z,2.63
2022-08-03T08:12:30.904Z,2.53
2022-08-03T08:15:00.492Z,2.38
2022-08-03T08:17:29.169Z,2.50
2022-08-03T08:19:57.889Z,2.40
2022-08-03T08:22:30.005Z,2.20
2022-08-03T08:24:59.349Z,2.40
2022-08-03T08:27:27.753Z,2.20
2022-08-03T08:30:00.566Z,2.00
2022-08-03T08:32:34.521Z,2.33
2022-08-03T08:35:02.793Z,2.30
2022-08-03T08:37:31.134Z,2.30
2022-08-03T08:39:59.620Z,2.25
2022-08-03T08:42:27.892Z,2.50
2022-08-03T08:44:56.762Z,2.47
2022-08-03T08:47:26.258Z,2.30
2022-08-03T08:50:09.279Z,2.55
2022-08-03T08:52:39.007Z,2.28
2022-08-03T08:55:08.304Z,2.83
2022-08-03T08:57:43.201Z,2.70
2022-08-03T09:00:14.019Z,2.40
2022-08-03T09:02:43.576Z,2.45
2022-08-03T09:05:14.091Z,2.50
2022-08-03T09:07:42.452Z,2.28
2022-08-03T09:10:13.594Z,2.33
2022-08-03T09:12:44.139Z,2.35
2022-08-03T09:15:19.536Z,2.50
2022-08-03T09:17:51.147Z,2.60
2022-08-03T09:20:21.971Z,2.40
2022-08-03T09:22:54.526Z,2.40
2022-08-03T09:25:28.592Z,2.33
2022-08-03T09:27:57.140Z,2.70
2022-08-03T09:30:33.646Z,2.40
2022-08-03T09:33:09.887Z,2.40
2022-08-03T09:35:59.037Z,2.47
2022-08-03T09:38:27.760Z,2.80
2022-08-03T09:41:00.051Z,2.72
2022-08-03T09:43:29.306Z,2.70
2022-08-03T09:46:04.570Z,2.53
2022-08-03T09:48:34.823Z,2.70
2022-08-03T09:51:13.593Z,2.80
2022-08-03T09:53:59.593Z,3.40
2022-08-03T09:56:39.348Z,2.72
2022-08-03T09:59:07.665Z,2.55
2022-08-03T10:01:36.388Z,2.80
2022-08-03T10:04:05.396Z,2.95
2022-08-03T10:06:35.222Z,2.67
2022-08-03T10:09:07.968Z,2.83
2022-08-03T10:11:41.228Z,2.35
2022-08-03T10:14:18.613Z,3.10
2022-08-03T10:16:47.540Z,2.75
2022-08-03T10:19:16.134Z,2.55
2022-08-03T10:21:52.330Z,2.70
2022-08-03T10:24:25.942Z,2.85
2022-08-03T10:26:55.347Z,2.50
2022-08-03T10:29:24.926Z,2.55
2022-08-03T10:31:58.094Z,2.60
2022-08-03T10:34:28.864Z,2.08
2022-08-03T10:37:00.573Z,2.22
2022-08-03T10:39:30.289Z,2.28
2022-08-03T10:42:00.058Z,2.72
2022-08-03T10:44:34.457Z,2.53
2022-08-03T10:47:02.875Z,2.25
2022-08-03T10:49:34.526Z,2.40
2022-08-03T10:52:11.375Z,2.53
2022-08-03T10:55:07.395Z,2.20
2022-08-03T10:57:50.053Z,2.33
2022-08-03T11:00:19.722Z,2.28
2022-08-03T11:03:03.975Z,2.08
2022-08-03T11:05:33.069Z,1.80
2022-08-03T11:08:35.697Z,2.25
2022-08-03T11:11:26.445Z,2.60
2022-08-03T11:13:59.023Z,2.13
2022-08-03T11:16:28.605Z,2.22
2022-08-03T11:19:00.674Z,2.60
2022-08-03T11:21:47.725Z,2.20
2022-08-03T11:24:30.874Z,2.33
2022-08-03T11:27:13.988Z,2.30
2022-08-03T11:29:56.656Z,2.63
2022-08-03T11:32:56.235Z,2.67
2022-08-03T11:35:25.399Z,2.55
2022-08-03T11:38:05.328Z,2.33
2022-08-03T11:40:37.827Z,2.20
2022-08-03T11:43:06.554Z,2.20
2022-08-03T11:45:36.527Z,2.10
2022-08-03T11:48:14.913Z,2.00
2022-08-03T11:50:45.337Z,2.80
2022-08-03T11:53:17.745Z,2.50
2022-08-03T11:55:48.820Z,3.00
2022-08-03T11:59:18.697Z,2.70
2022-08-03T12:01:08.733Z,2.38
2022-08-03T12:03:37.393Z,2.53
2022-08-03T12:06:10.564Z,2.40
2022-08-03T12:08:38.858Z,2.60
2022-08-03T12:11:08.784Z,2.80
2022-08-03T12:14:43.925Z,3.05
2022-08-03T12:16:42.916Z,2.90
2022-08-03T12:19:12.420Z,3.10
2022-08-03T12:21:57.402Z,2.85
2022-08-03T12:24:28.560Z,2.83
2022-08-03T12:26:59.965Z,2.83
2022-08-03T12:29:28.589Z,3.00
2022-08-03T12:31:58.465Z,2.75
2022-08-03T12:34:27.276Z,3.20
2022-08-03T12:37:00.100Z,2.67
2022-08-03T12:39:31.080Z,2.92
2022-08-03T12:41:59.565Z,2.42
2022-08-03T12:44:31.946Z,2.25
2022-08-03T12:47:02.366Z,2.63
2022-08-03T12:49:30.749Z,3.08
2022-08-03T12:52:03.901Z,2.55
2022-08-03T12:54:36.050Z,3.00
2022-08-03T12:57:05.303Z,2.55
2022-08-03T12:59:35.303Z,3.45
2022-08-03T13:02:16.422Z,2.55
2022-08-03T13:04:46.353Z,3.25
2022-08-03T13:07:15.443Z,2.78
2022-08-03T13:09:44.386Z,2.55
2022-08-03T13:12:13.438Z,3.15
2022-08-03T13:14:41.930Z,3.05
2022-08-03T13:17:11.652Z,3.30
2022-08-03T13:19:40.186Z,2.42
2022-08-03T13:22:15.643Z,2.78
2022-08-03T13:24:44.722Z,2.65
2022-08-03T13:28:02.422Z,3.15
2022-08-03T13:30:01.574Z,3.10
2022-08-03T13:32:31.246Z,2.60
2022-08-03T13:34:59.564Z,3.05
2022-08-03T13:37:28.209Z,2.63
2022-08-03T13:39:59.515Z,2.72
2022-08-03T13:42:31.420Z,2.78
2022-08-03T13:44:59.949Z,3.00
2022-08-03T13:47:28.552Z,2.40
2022-08-03T13:50:01.012Z,2.70
2022-08-03T13:52:30.861Z,2.85
2022-08-03T13:54:59.815Z,2.60
2022-08-03T13:58:04.544Z,2.50
2022-08-03T14:00:27.266Z,2.50
2022-08-03T14:03:06.563Z,2.10
2022-08-03T14:05:42.629Z,2.70
2022-08-03T14:08:11.454Z,2.53
2022-08-03T14:10:40.464Z,2.40
2022-08-03T14:13:08.874Z,2.25
2022-08-03T14:15:38.544Z,2.45
2022-08-03T14:18:15.899Z,2.25
2022-08-03T14:21:03.364Z,2.33
2022-08-03T14:23:33.725Z,2.47
2022-08-03T14:26:02.079Z,2.50
2022-08-03T14:28:30.358Z,2.08
2022-08-03T14:30:58.730Z,2.20
2022-08-03T14:33:28.314Z,2.10
2022-08-03T14:35:58.062Z,2.25
2022-08-03T14:38:26.344Z,2.15
2022-08-03T14:40:54.651Z,2.47
2022-08-03T14:43:22.976Z,2.10
2022-08-03T14:45:53.285Z,2.10
2022-08-03T14:50:27.857Z,2.00
2022-08-03T14:51:11.767Z,2.17
2022-08-03T14:53:40.037Z,2.00
2022-08-03T14:56:10.753Z,2.15
2022-08-03T14:58:39.599Z,2.08
2022-08-03T15:02:04.925Z,2.47
2022-08-03T15:03:56.820Z,2.10
2022-08-03T15:06:26.462Z,2.05
2022-08-03T15:09:21.169Z,2.53
2022-08-03T15:11:43.540Z,2.17
2022-08-03T15:14:13.488Z,1.98
2022-08-03T15:16:43.222Z,2.17
2022-08-03T15:20:00.301Z,2.03
2022-08-03T15:22:01.297Z,2.22
2022-08-03T15:24:30.163Z,2.38
2022-08-03T15:26:58.452Z,1.85
2022-08-03T15:30:05.231Z,1.92
2022-08-03T15:32:15.060Z,1.83
2022-08-03T15:34:50.498Z,2.15
2022-08-03T15:37:20.899Z,1.95
2022-08-03T15:39:59.176Z,1.92
2022-08-03T15:42:28.814Z,2.10
2022-08-03T15:44:57.093Z,1.92
2022-08-03T15:47:25.556Z,2.13
2022-08-03T15:49:53.802Z,2.08
2022-08-03T15:52:23.446Z,2.10
2022-08-03T15:54:51.723Z,1.90
2022-08-03T15:57:20.353Z,1.70
2022-08-03T15:59:48.824Z,2.13
2022-08-03T16:02:17.339Z,1.30
2022-08-03T16:04:45.614Z,1.60
2022-08-03T16:07:15.684Z,1.80
2022-08-03T16:09:45.448Z,1.92
2022-08-03T16:12:16.133Z,1.90
2022-08-03T16:14:52.308Z,2.20
2022-08-03T16:17:21.262Z,2.22
2022-08-03T16:19:49.880Z,1.85
2022-08-03T16:22:19.674Z,1.98
2022-08-03T16:24:52.598Z,2.10
2022-08-03T16:27:37.423Z,2.28
2022-08-03T16:30:10.421Z,1.90
2022-08-03T16:32:39.821Z,1.85
2022-08-03T16:35:08.903Z,2.25
2022-08-03T16:37:39.057Z,2.20
2022-08-03T16:40:17.373Z,2.33
2022-08-03T16:42:47.972Z,2.30
2022-08-03T16:45:16.312Z,2.67
2022-08-03T16:47:44.577Z,2.28
2022-08-03T16:50:19.069Z,2.30
2022-08-03T16:52:48.442Z,2.47
2022-08-03T16:55:48.868Z,4.20
2022-08-03T16:58:07.492Z,2.60
2022-08-03T17:00:41.194Z,2.35
2022-08-03T17:03:18.666Z,2.30
2022-08-03T17:05:49.726Z,2.30
2022-08-03T17:08:26.153Z,2.63
2022-08-03T17:10:56.795Z,2.30
2022-08-03T17:13:38.833Z,2.25
2022-08-03T17:16:09.148Z,2.30
2022-08-03T17:18:42.312Z,2.40
2022-08-03T17:21:17.336Z,2.60
2022-08-03T17:23:47.832Z,2.65
2022-08-03T17:26:21.985Z,2.08
2022-08-03T17:28:57.455Z,3.10
2022-08-03T17:31:31.142Z,2.45
2022-08-03T17:34:01.410Z,2.50
2022-08-03T17:39:30.895Z,2.80
2022-08-03T17:42:29.513Z,2.95
2022-08-03T17:44:57.694Z,2.95
2022-08-03T17:47:29.145Z,3.10
2022-08-03T17:50:25.404Z,3.00
2022-08-03T17:52:59.052Z,3.10
2022-08-03T17:55:55.336Z,2.83
2022-08-03T17:58:25.124Z,2.63
2022-08-03T18:01:57.099Z,3.42
2022-08-03T18:04:11.027Z,3.35
2022-08-03T18:06:55.528Z,3.45
2022-08-03T18:10:03.350Z,3.67
2022-08-03T18:12:15.598Z,2.90
2022-08-03T18:14:57.658Z,3.60
2022-08-03T18:17:55.683Z,2.50
2022-08-03T18:23:07.892Z,2.95
2022-08-03T18:25:45.279Z,2.70
2022-08-03T18:28:18.691Z,3.10
2022-08-03T18:30:53.708Z,2.92
2022-08-03T18:34:17.830Z,2.33
2022-08-03T18:39:02.514Z,2.83
2022-08-03T18:41:34.017Z,2.63
2022-08-03T18:44:08.469Z,2.60
2022-08-03T18:46:47.984Z,2.50
2022-08-03T18:49:22.659Z,2.28
2022-08-03T18:51:54.989Z,2.35
2022-08-03T18:54:51.798Z,2.28
2022-08-03T18:57:21.540Z,2.72
2022-08-03T19:00:04.533Z,2.13
2022-08-03T19:02:37.033Z,2.60
2022-08-03T19:05:08.083Z,2.42
2022-08-03T19:07:36.819Z,2.65
2022-08-03T19:10:06.648Z,2.30
2022-08-03T19:12:40.368Z,2.90
2022-08-03T19:15:12.904Z,2.55
2022-08-03T19:17:50.212Z,2.63
2022-08-03T19:20:22.858Z,3.00
2022-08-03T19:22:54.679Z,2.90
2022-08-03T19:25:35.227Z,2.95
2022-08-03T19:28:06.282Z,2.30
2022-08-03T19:30:55.252Z,2.50
2022-08-03T19:33:29.927Z,2.80
2022-08-03T19:35:59.044Z,2.63
2022-08-03T19:38:29.815Z,2.33
2022-08-03T19:41:00.149Z,2.67
2022-08-03T19:43:33.044Z,2.63
2022-08-03T19:46:18.067Z,2.70
2022-08-03T19:49:02.943Z,2.60
2022-08-03T19:52:00.723Z,2.42
2022-08-03T19:54:29.845Z,2.80
2022-08-03T19:57:01.912Z,3.00
2022-08-03T19:59:30.839Z,3.20
2022-08-03T20:01:59.209Z,2.78
2022-08-03T20:04:27.635Z,3.08
2022-08-03T20:07:00.220Z,2.65
2022-08-03T20:09:30.691Z,1.98
2022-08-03T20:11:59.142Z,2.78
2022-08-03T20:14:27.718Z,2.40
2022-08-03T20:16:57.556Z,3.60
2022-08-03T20:19:32.400Z,3.78
2022-08-03T20:22:02.839Z,2.53
2022-08-03T20:24:35.989Z,2.30
2022-08-03T20:27:07.958Z,2.35
2022-08-03T20:30:06.400Z,3.17
2022-08-03T20:32:27.039Z,2.72
2022-08-03T20:34:55.452Z,2.65
2022-08-03T20:37:25.241Z,2.13
2022-08-03T20:39:54.325Z,2.95
2022-08-03T20:42:22.896Z,2.67
2022-08-03T20:44:58.940Z,3.05
2022-08-03T20:47:35.887Z,2.78
2022-08-03T20:50:07.484Z,2.80
2022-08-03T20:52:43.997Z,2.70
2022-08-03T20:55:18.618Z,2.78
2022-08-03T20:58:06.918Z,2.42
2022-08-03T21:00:35.288Z,3.40
2022-08-03T21:03:03.861Z,2.63
2022-08-03T21:05:48.250Z,3.90
2022-08-03T21:08:23.025Z,4.15
2022-08-03T21:10:51.868Z,3.80
2022-08-03T21:12:57.650Z,3.00
2022-08-03T21:12:58.649Z,2.70
2022-08-03T21:13:25.105Z,3.20
2022-08-03T21:16:12.868Z,8.23
2022-08-03T21:18:45.083Z,15.70
2022-08-03T21:21:15.535Z,18.17
2022-08-03T21:23:48.766Z,31.58
2022-08-03T21:26:18.818Z,19.15
2022-08-03T21:28:47.684Z,15.70
2022-08-03T21:31:24.671Z,9.35
2022-08-03T21:33:55.558Z,7.88
2022-08-03T21:36:23.833Z,4.60
2022-08-03T21:38:56.597Z,4.53
2022-08-03T21:41:25.952Z,3.47
2022-08-03T21:43:54.236Z,4.00
2022-08-03T21:46:23.626Z,3.13
2022-08-03T21:48:55.006Z,2.67
2022-08-03T21:51:25.431Z,2.72
2022-08-03T21:54:00.267Z,2.47
2022-08-03T21:56:33.846Z,3.22
2022-08-03T21:59:04.931Z,2.70
2022-08-03T22:01:35.337Z,3.13
2022-08-03T22:04:06.903Z,3.33
2022-08-03T22:06:35.552Z,2.85
2022-08-03T22:09:05.856Z,2.92
2022-08-03T22:11:35.611Z,3.20
2022-08-03T22:14:04.350Z,3.10
2022-08-03T22:16:32.640Z,3.15
2022-08-03T22:19:00.939Z,3.13
2022-08-03T22:21:36.401Z,2.80
2022-08-03T22:24:06.935Z,2.70
2022-08-03T22:26:37.323Z,3.08
2022-08-03T22:29:08.834Z,2.70
2022-08-03T22:31:58.126Z,3.28
2022-08-03T22:34:27.690Z,3.03
2022-08-03T22:37:00.147Z,3.00
2022-08-03T22:39:30.888Z,2.63
2022-08-03T22:41:59.747Z,2.67
2022-08-03T22:44:28.243Z,2.85
2022-08-03T22:46:57.230Z,2.70
2022-08-03T22:49:25.627Z,3.05
2022-08-03T22:51:53.889Z,2.65
2022-08-03T22:54:22.663Z,2.85
2022-08-03T22:56:52.956Z,2.53
2022-08-03T22:59:41.437Z,3.28
2022-08-03T23:02:20.086Z,2.67
2022-08-03T23:04:51.582Z,2.92
2022-08-03T23:07:22.772Z,2.95
2022-08-03T23:09:51.450Z,2.60
2022-08-03T23:12:21.296Z,2.90
2022-08-03T23:14:54.085Z,2.90
2022-08-03T23:17:24.353Z,2.90
2022-08-03T23:19:53.699Z,2.53
2022-08-03T23:22:29.372Z,2.67
2022-08-03T23:24:59.322Z,2.72
2022-08-03T23:27:29.620Z,2.72
2022-08-03T23:29:59.278Z,3.28
2022-08-03T23:32:27.818Z,2.75
2022-08-03T23:35:15.495Z,2.75
2022-08-03T23:38:04.518Z,2.60
2022-08-03T23:40:33.341Z,3.03
2022-08-03T23:43:03.281Z,2.65
2022-08-03T23:45:36.653Z,3.25
2022-08-03T23:48:04.940Z,2.97
2022-08-03T23:50:36.898Z,3.10
2022-08-03T23:53:09.863Z,3.47
2022-08-03T23:55:48.870Z,3.17
2022-08-03T23:58:24.624Z,2.83
